sensor_id;sensor_type;location;lat;lon;timestamp;P1;durP1;ratioP1;P2;durP2;ratioP2
65936;SDS011;52707;52.086;5.418;2023-07-31T00:00:59;3.10;;;2.05;;
65936;SDS011;52707;52.086;5.418;2023-07-31T00:03:26;3.38;;;2.17;;
65936;SDS011;52707;52.086;5.418;2023-07-31T00:05:52;2.80;;;1.90;;
65936;SDS011;52707;52.086;5.418;2023-07-31T00:08:18;4.57;;;2.22;;
65936;SDS011;52707;52.086;5.418;2023-07-31T00:10:45;2.50;;;1.95;;
65936;SDS011;52707;52.086;5.418;2023-07-31T00:13:11;3.10;;;2.15;;
65936;SDS011;52707;52.086;5.418;2023-07-31T00:15:38;4.95;;;2.13;;
65936;SDS011;52707;52.086;5.418;2023-07-31T00:18:04;3.40;;;2.13;;
65936;SDS011;52707;52.086;5.418;2023-07-31T00:20:31;2.33;;;2.03;;
65936;SDS011;52707;52.086;5.418;2023-07-31T00:22:57;2.95;;;1.98;;
65936;SDS011;52707;52.086;5.418;2023-07-31T00:25:24;7.60;;;2.55;;
65936;SDS011;52707;52.086;5.418;2023-07-31T00:27:50;6.13;;;2.90;;
65936;SDS011;52707;52.086;5.418;2023-07-31T00:30:16;12.35;;;4.35;;
65936;SDS011;52707;52.086;5.418;2023-07-31T00:32:43;15.50;;;4.85;;
65936;SDS011;52707;52.086;5.418;2023-07-31T00:35:09;12.93;;;4.60;;
65936;SDS011;52707;52.086;5.418;2023-07-31T00:37:35;19.67;;;5.10;;
65936;SDS011;52707;52.086;5.418;2023-07-31T00:40:02;29.35;;;6.10;;
65936;SDS011;52707;52.086;5.418;2023-07-31T00:42:30;24.88;;;6.20;;
65936;SDS011;52707;52.086;5.418;2023-07-31T00:44:56;39.72;;;8.18;;
65936;SDS011;52707;52.086;5.418;2023-07-31T00:47:22;38.15;;;7.47;;
65936;SDS011;52707;52.086;5.418;2023-07-31T00:49:49;37.42;;;7.95;;
65936;SDS011;52707;52.086;5.418;2023-07-31T00:52:15;42.55;;;8.93;;
65936;SDS011;52707;52.086;5.418;2023-07-31T00:54:42;43.13;;;8.43;;
65936;SDS011;52707;52.086;5.418;2023-07-31T00:57:08;41.80;;;9.38;;
65936;SDS011;52707;52.086;5.418;2023-07-31T00:59:35;57.60;;;10.10;;
65936;SDS011;52707;52.086;5.418;2023-07-31T01:02:02;48.28;;;9.30;;
65936;SDS011;52707;52.086;5.418;2023-07-31T01:04:29;44.63;;;9.95;;
65936;SDS011;52707;52.086;5.418;2023-07-31T01:09:27;45.35;;;9.52;;
65936;SDS011;52707;52.086;5.418;2023-07-31T01:12:00;45.83;;;9.43;;
65936;SDS011;52707;52.086;5.418;2023-07-31T01:14:27;41.25;;;9.13;;
65936;SDS011;52707;52.086;5.418;2023-07-31T01:16:54;34.28;;;9.55;;
65936;SDS011;52707;52.086;5.418;2023-07-31T01:19:24;44.05;;;8.77;;
65936;SDS011;52707;52.086;5.418;2023-07-31T01:24:21;38.00;;;9.40;;
65936;SDS011;52707;52.086;5.418;2023-07-31T01:26:58;42.08;;;9.80;;
65936;SDS011;52707;52.086;5.418;2023-07-31T01:29:32;34.28;;;9.85;;
65936;SDS011;52707;52.086;5.418;2023-07-31T01:32:01;33.35;;;8.48;;
65936;SDS011;52707;52.086;5.418;2023-07-31T01:34:28;37.20;;;8.88;;
65936;SDS011;52707;52.086;5.418;2023-07-31T01:36:55;36.97;;;8.82;;
65936;SDS011;52707;52.086;5.418;2023-07-31T01:39:22;26.85;;;8.27;;
65936;SDS011;52707;52.086;5.418;2023-07-31T01:41:48;30.17;;;8.70;;
65936;SDS011;52707;52.086;5.418;2023-07-31T01:44:14;39.05;;;8.35;;
65936;SDS011;52707;52.086;5.418;2023-07-31T01:46:41;27.83;;;7.75;;
65936;SDS011;52707;52.086;5.418;2023-07-31T01:49:08;33.75;;;7.60;;
65936;SDS011;52707;52.086;5.418;2023-07-31T01:51:34;37.95;;;8.32;;
65936;SDS011;52707;52.086;5.418;2023-07-31T01:54:01;40.28;;;8.93;;
65936;SDS011;52707;52.086;5.418;2023-07-31T01:56:27;43.05;;;10.40;;
65936;SDS011;52707;52.086;5.418;2023-07-31T01:58:53;44.60;;;8.80;;
65936;SDS011;52707;52.086;5.418;2023-07-31T02:01:20;36.80;;;9.40;;
65936;SDS011;52707;52.086;5.418;2023-07-31T02:03:46;21.98;;;6.70;;
65936;SDS011;52707;52.086;5.418;2023-07-31T02:06:13;27.83;;;7.40;;
65936;SDS011;52707;52.086;5.418;2023-07-31T02:08:39;28.65;;;6.03;;
65936;SDS011;52707;52.086;5.418;2023-07-31T02:11:06;25.45;;;6.43;;
65936;SDS011;52707;52.086;5.418;2023-07-31T02:13:32;20.38;;;5.55;;
65936;SDS011;52707;52.086;5.418;2023-07-31T02:15:59;25.77;;;6.53;;
65936;SDS011;52707;52.086;5.418;2023-07-31T02:18:25;20.15;;;5.60;;
65936;SDS011;52707;52.086;5.418;2023-07-31T02:20:52;20.05;;;5.65;;
65936;SDS011;52707;52.086;5.418;2023-07-31T02:23:19;16.20;;;5.15;;
65936;SDS011;52707;52.086;5.418;2023-07-31T02:25:45;21.40;;;6.28;;
65936;SDS011;52707;52.086;5.418;2023-07-31T02:28:12;25.67;;;6.45;;
65936;SDS011;52707;52.086;5.418;2023-07-31T02:30:39;25.50;;;6.30;;
65936;SDS011;52707;52.086;5.418;2023-07-31T02:33:05;25.65;;;6.78;;
65936;SDS011;52707;52.086;5.418;2023-07-31T02:35:31;26.08;;;6.55;;
65936;SDS011;52707;52.086;5.418;2023-07-31T02:37:58;27.08;;;6.15;;
65936;SDS011;52707;52.086;5.418;2023-07-31T02:40:24;25.02;;;5.75;;
65936;SDS011;52707;52.086;5.418;2023-07-31T02:42:51;29.88;;;7.00;;
65936;SDS011;52707;52.086;5.418;2023-07-31T02:45:17;25.27;;;6.95;;
65936;SDS011;52707;52.086;5.418;2023-07-31T02:47:43;24.63;;;6.07;;
65936;SDS011;52707;52.086;5.418;2023-07-31T02:50:10;25.88;;;6.85;;
65936;SDS011;52707;52.086;5.418;2023-07-31T02:52:36;26.00;;;6.97;;
65936;SDS011;52707;52.086;5.418;2023-07-31T02:55:02;34.95;;;7.60;;
65936;SDS011;52707;52.086;5.418;2023-07-31T02:57:29;39.42;;;8.45;;
65936;SDS011;52707;52.086;5.418;2023-07-31T02:59:55;31.25;;;7.13;;
65936;SDS011;52707;52.086;5.418;2023-07-31T03:02:22;26.77;;;6.85;;
65936;SDS011;52707;52.086;5.418;2023-07-31T03:04:48;31.75;;;8.35;;
65936;SDS011;52707;52.086;5.418;2023-07-31T03:07:15;39.58;;;9.38;;
65936;SDS011;52707;52.086;5.418;2023-07-31T03:09:41;31.98;;;8.35;;
65936;SDS011;52707;52.086;5.418;2023-07-31T03:12:08;29.50;;;7.95;;
65936;SDS011;52707;52.086;5.418;2023-07-31T03:14:34;29.92;;;8.02;;
65936;SDS011;52707;52.086;5.418;2023-07-31T03:17:00;35.03;;;8.55;;
65936;SDS011;52707;52.086;5.418;2023-07-31T03:19:27;42.13;;;9.90;;
65936;SDS011;52707;52.086;5.418;2023-07-31T03:21:56;32.63;;;8.85;;
65936;SDS011;52707;52.086;5.418;2023-07-31T03:24:22;29.35;;;8.00;;
65936;SDS011;52707;52.086;5.418;2023-07-31T03:26:48;38.20;;;9.48;;
65936;SDS011;52707;52.086;5.418;2023-07-31T03:29:15;36.88;;;9.10;;
65936;SDS011;52707;52.086;5.418;2023-07-31T03:31:41;40.40;;;8.38;;
65936;SDS011;52707;52.086;5.418;2023-07-31T03:34:08;34.72;;;8.27;;
65936;SDS011;52707;52.086;5.418;2023-07-31T03:36:34;39.78;;;8.32;;
65936;SDS011;52707;52.086;5.418;2023-07-31T03:39:00;38.72;;;8.23;;
65936;SDS011;52707;52.086;5.418;2023-07-31T03:41:27;25.45;;;8.15;;
65936;SDS011;52707;52.086;5.418;2023-07-31T03:43:53;25.65;;;8.48;;
65936;SDS011;52707;52.086;5.418;2023-07-31T03:46:22;34.78;;;9.27;;
65936;SDS011;52707;52.086;5.418;2023-07-31T03:48:49;35.58;;;8.45;;
65936;SDS011;52707;52.086;5.418;2023-07-31T03:51:15;31.60;;;8.45;;
65936;SDS011;52707;52.086;5.418;2023-07-31T03:53:43;34.85;;;9.75;;
65936;SDS011;52707;52.086;5.418;2023-07-31T03:56:09;30.80;;;8.88;;
65936;SDS011;52707;52.086;5.418;2023-07-31T03:58:36;31.55;;;8.27;;
65936;SDS011;52707;52.086;5.418;2023-07-31T04:01:03;33.38;;;7.95;;
65936;SDS011;52707;52.086;5.418;2023-07-31T04:03:30;45.75;;;9.02;;
65936;SDS011;52707;52.086;5.418;2023-07-31T04:05:56;32.25;;;8.60;;
65936;SDS011;52707;52.086;5.418;2023-07-31T04:08:22;37.42;;;8.32;;
65936;SDS011;52707;52.086;5.418;2023-07-31T04:10:49;23.98;;;7.90;;
65936;SDS011;52707;52.086;5.418;2023-07-31T04:13:16;28.98;;;8.80;;
65936;SDS011;52707;52.086;5.418;2023-07-31T04:15:42;45.90;;;8.40;;
65936;SDS011;52707;52.086;5.418;2023-07-31T04:18:08;27.48;;;8.32;;
65936;SDS011;52707;52.086;5.418;2023-07-31T04:20:35;32.20;;;8.73;;
65936;SDS011;52707;52.086;5.418;2023-07-31T04:23:01;27.40;;;8.38;;
65936;SDS011;52707;52.086;5.418;2023-07-31T04:25:28;35.45;;;7.80;;
65936;SDS011;52707;52.086;5.418;2023-07-31T04:27:54;24.00;;;7.45;;
65936;SDS011;52707;52.086;5.418;2023-07-31T04:30:20;25.15;;;8.25;;
65936;SDS011;52707;52.086;5.418;2023-07-31T04:32:47;27.08;;;7.47;;
65936;SDS011;52707;52.086;5.418;2023-07-31T04:35:13;31.58;;;7.50;;
65936;SDS011;52707;52.086;5.418;2023-07-31T04:37:39;30.10;;;9.00;;
65936;SDS011;52707;52.086;5.418;2023-07-31T04:40:06;31.42;;;8.25;;
65936;SDS011;52707;52.086;5.418;2023-07-31T04:42:32;30.17;;;7.90;;
65936;SDS011;52707;52.086;5.418;2023-07-31T04:44:59;24.80;;;7.95;;
65936;SDS011;52707;52.086;5.418;2023-07-31T04:47:25;28.92;;;7.93;;
65936;SDS011;52707;52.086;5.418;2023-07-31T04:49:52;23.50;;;7.47;;
65936;SDS011;52707;52.086;5.418;2023-07-31T04:52:18;36.03;;;8.48;;
65936;SDS011;52707;52.086;5.418;2023-07-31T04:54:45;37.47;;;8.27;;
65936;SDS011;52707;52.086;5.418;2023-07-31T04:57:11;39.15;;;8.38;;
65936;SDS011;52707;52.086;5.418;2023-07-31T04:59:37;30.08;;;7.88;;
65936;SDS011;52707;52.086;5.418;2023-07-31T05:02:04;31.40;;;7.80;;
65936;SDS011;52707;52.086;5.418;2023-07-31T05:04:30;29.85;;;8.20;;
65936;SDS011;52707;52.086;5.418;2023-07-31T05:06:57;32.97;;;8.30;;
65936;SDS011;52707;52.086;5.418;2023-07-31T05:09:23;37.15;;;8.57;;
65936;SDS011;52707;52.086;5.418;2023-07-31T05:11:49;20.90;;;7.50;;
65936;SDS011;52707;52.086;5.418;2023-07-31T05:14:16;25.70;;;7.85;;
65936;SDS011;52707;52.086;5.418;2023-07-31T05:16:42;26.55;;;7.80;;
65936;SDS011;52707;52.086;5.418;2023-07-31T05:19:09;26.00;;;7.25;;
65936;SDS011;52707;52.086;5.418;2023-07-31T05:21:36;27.83;;;7.53;;
65936;SDS011;52707;52.086;5.418;2023-07-31T05:24:02;27.67;;;7.15;;
65936;SDS011;52707;52.086;5.418;2023-07-31T05:26:28;25.17;;;6.50;;
65936;SDS011;52707;52.086;5.418;2023-07-31T05:28:55;24.38;;;6.80;;
65936;SDS011;52707;52.086;5.418;2023-07-31T05:31:21;17.40;;;5.80;;
65936;SDS011;52707;52.086;5.418;2023-07-31T05:33:48;18.90;;;6.32;;
65936;SDS011;52707;52.086;5.418;2023-07-31T05:36:16;15.48;;;5.72;;
65936;SDS011;52707;52.086;5.418;2023-07-31T05:38:42;17.13;;;5.65;;
65936;SDS011;52707;52.086;5.418;2023-07-31T05:41:12;18.48;;;5.10;;
65936;SDS011;52707;52.086;5.418;2023-07-31T05:43:38;19.58;;;5.53;;
65936;SDS011;52707;52.086;5.418;2023-07-31T05:46:05;19.85;;;5.65;;
65936;SDS011;52707;52.086;5.418;2023-07-31T05:48:33;13.77;;;5.18;;
65936;SDS011;52707;52.086;5.418;2023-07-31T05:51:02;12.50;;;5.47;;
65936;SDS011;52707;52.086;5.418;2023-07-31T05:53:29;14.65;;;5.18;;
65936;SDS011;52707;52.086;5.418;2023-07-31T05:55:55;12.80;;;5.88;;
65936;SDS011;52707;52.086;5.418;2023-07-31T05:58:21;15.13;;;5.70;;
65936;SDS011;52707;52.086;5.418;2023-07-31T06:00:48;16.10;;;5.90;;
65936;SDS011;52707;52.086;5.418;2023-07-31T06:03:14;14.85;;;6.47;;
65936;SDS011;52707;52.086;5.418;2023-07-31T06:05:41;26.27;;;6.03;;
65936;SDS011;52707;52.086;5.418;2023-07-31T06:08:07;19.02;;;6.35;;
65936;SDS011;52707;52.086;5.418;2023-07-31T06:10:34;14.43;;;6.00;;
65936;SDS011;52707;52.086;5.418;2023-07-31T06:13:00;16.15;;;5.90;;
65936;SDS011;52707;52.086;5.418;2023-07-31T06:15:27;17.23;;;5.78;;
65936;SDS011;52707;52.086;5.418;2023-07-31T06:17:53;13.98;;;5.68;;
65936;SDS011;52707;52.086;5.418;2023-07-31T06:20:20;12.18;;;5.50;;
65936;SDS011;52707;52.086;5.418;2023-07-31T06:22:47;17.08;;;5.72;;
65936;SDS011;52707;52.086;5.418;2023-07-31T06:25:13;15.00;;;5.68;;
65936;SDS011;52707;52.086;5.418;2023-07-31T06:27:41;15.98;;;5.60;;
65936;SDS011;52707;52.086;5.418;2023-07-31T06:30:07;11.55;;;4.90;;
65936;SDS011;52707;52.086;5.418;2023-07-31T06:32:34;10.80;;;5.13;;
65936;SDS011;52707;52.086;5.418;2023-07-31T06:35:00;15.68;;;5.00;;
65936;SDS011;52707;52.086;5.418;2023-07-31T06:37:26;11.55;;;4.45;;
65936;SDS011;52707;52.086;5.418;2023-07-31T06:39:53;13.05;;;4.63;;
65936;SDS011;52707;52.086;5.418;2023-07-31T06:42:19;11.43;;;4.05;;
65936;SDS011;52707;52.086;5.418;2023-07-31T06:44:46;10.23;;;4.55;;
65936;SDS011;52707;52.086;5.418;2023-07-31T06:47:12;9.77;;;4.15;;
65936;SDS011;52707;52.086;5.418;2023-07-31T06:49:38;10.30;;;3.92;;
65936;SDS011;52707;52.086;5.418;2023-07-31T06:52:05;10.00;;;4.15;;
65936;SDS011;52707;52.086;5.418;2023-07-31T06:54:31;11.05;;;4.22;;
65936;SDS011;52707;52.086;5.418;2023-07-31T06:56:58;11.95;;;4.63;;
65936;SDS011;52707;52.086;5.418;2023-07-31T06:59:24;13.15;;;4.85;;
65936;SDS011;52707;52.086;5.418;2023-07-31T07:01:50;18.40;;;4.70;;
65936;SDS011;52707;52.086;5.418;2023-07-31T07:04:17;8.65;;;3.78;;
65936;SDS011;52707;52.086;5.418;2023-07-31T07:06:43;11.80;;;4.40;;
65936;SDS011;52707;52.086;5.418;2023-07-31T07:09:09;9.55;;;3.80;;
65936;SDS011;52707;52.086;5.418;2023-07-31T07:11:36;9.00;;;3.92;;
65936;SDS011;52707;52.086;5.418;2023-07-31T07:14:03;9.07;;;4.18;;
65936;SDS011;52707;52.086;5.418;2023-07-31T07:16:30;7.18;;;3.88;;
65936;SDS011;52707;52.086;5.418;2023-07-31T07:18:56;6.85;;;4.60;;
65936;SDS011;52707;52.086;5.418;2023-07-31T07:21:29;7.90;;;4.05;;
65936;SDS011;52707;52.086;5.418;2023-07-31T07:23:56;7.72;;;4.30;;
65936;SDS011;52707;52.086;5.418;2023-07-31T07:26:22;8.25;;;4.38;;
65936;SDS011;52707;52.086;5.418;2023-07-31T07:28:49;8.63;;;4.30;;
65936;SDS011;52707;52.086;5.418;2023-07-31T07:31:15;9.15;;;4.07;;
65936;SDS011;52707;52.086;5.418;2023-07-31T07:33:42;8.48;;;4.90;;
65936;SDS011;52707;52.086;5.418;2023-07-31T07:36:08;6.22;;;4.03;;
65936;SDS011;52707;52.086;5.418;2023-07-31T07:38:36;8.57;;;3.97;;
65936;SDS011;52707;52.086;5.418;2023-07-31T07:41:03;8.70;;;4.28;;
65936;SDS011;52707;52.086;5.418;2023-07-31T07:43:29;11.25;;;4.35;;
65936;SDS011;52707;52.086;5.418;2023-07-31T07:45:56;13.27;;;4.28;;
65936;SDS011;52707;52.086;5.418;2023-07-31T07:48:22;7.88;;;4.35;;
65936;SDS011;52707;52.086;5.418;2023-07-31T07:50:48;7.95;;;3.90;;
65936;SDS011;52707;52.086;5.418;2023-07-31T07:53:15;6.78;;;3.40;;
65936;SDS011;52707;52.086;5.418;2023-07-31T07:55:41;7.72;;;3.88;;
65936;SDS011;52707;52.086;5.418;2023-07-31T07:58:08;5.72;;;3.70;;
65936;SDS011;52707;52.086;5.418;2023-07-31T08:00:34;8.90;;;3.50;;
65936;SDS011;52707;52.086;5.418;2023-07-31T08:03:01;5.65;;;2.97;;
65936;SDS011;52707;52.086;5.418;2023-07-31T08:05:27;4.75;;;2.80;;
65936;SDS011;52707;52.086;5.418;2023-07-31T08:07:56;8.85;;;2.95;;
65936;SDS011;52707;52.086;5.418;2023-07-31T08:10:22;5.40;;;3.10;;
65936;SDS011;52707;52.086;5.418;2023-07-31T08:12:48;7.65;;;3.22;;
65936;SDS011;52707;52.086;5.418;2023-07-31T08:15:15;7.32;;;2.78;;
65936;SDS011;52707;52.086;5.418;2023-07-31T08:17:41;10.05;;;3.25;;
65936;SDS011;52707;52.086;5.418;2023-07-31T08:20:08;6.82;;;3.03;;
65936;SDS011;52707;52.086;5.418;2023-07-31T08:22:35;6.32;;;2.85;;
65936;SDS011;52707;52.086;5.418;2023-07-31T08:25:01;4.97;;;2.80;;
65936;SDS011;52707;52.086;5.418;2023-07-31T08:27:29;4.63;;;2.45;;
65936;SDS011;52707;52.086;5.418;2023-07-31T08:29:55;9.52;;;3.10;;
65936;SDS011;52707;52.086;5.418;2023-07-31T08:32:22;3.72;;;2.65;;
65936;SDS011;52707;52.086;5.418;2023-07-31T08:34:48;3.53;;;2.40;;
65936;SDS011;52707;52.086;5.418;2023-07-31T08:37:15;4.20;;;2.97;;
65936;SDS011;52707;52.086;5.418;2023-07-31T08:39:41;8.48;;;3.00;;
65936;SDS011;52707;52.086;5.418;2023-07-31T08:42:08;4.85;;;2.17;;
65936;SDS011;52707;52.086;5.418;2023-07-31T08:44:35;5.40;;;2.40;;
65936;SDS011;52707;52.086;5.418;2023-07-31T08:47:01;2.58;;;2.13;;
65936;SDS011;52707;52.086;5.418;2023-07-31T08:49:28;2.42;;;2.22;;
65936;SDS011;52707;52.086;5.418;2023-07-31T08:51:55;3.67;;;2.20;;
65936;SDS011;52707;52.086;5.418;2023-07-31T08:54:24;2.40;;;1.98;;
65936;SDS011;52707;52.086;5.418;2023-07-31T08:56:50;4.00;;;2.08;;
65936;SDS011;52707;52.086;5.418;2023-07-31T08:59:17;3.50;;;2.40;;
65936;SDS011;52707;52.086;5.418;2023-07-31T09:01:47;2.85;;;2.40;;
65936;SDS011;52707;52.086;5.418;2023-07-31T09:04:16;3.97;;;2.55;;
65936;SDS011;52707;52.086;5.418;2023-07-31T09:06:42;2.90;;;2.47;;
65936;SDS011;52707;52.086;5.418;2023-07-31T09:09:10;8.52;;;2.65;;
65936;SDS011;52707;52.086;5.418;2023-07-31T09:11:36;3.17;;;2.75;;
65936;SDS011;52707;52.086;5.418;2023-07-31T09:14:03;6.47;;;3.10;;
65936;SDS011;52707;52.086;5.418;2023-07-31T09:16:34;5.07;;;3.00;;
65936;SDS011;52707;52.086;5.418;2023-07-31T09:19:01;3.08;;;2.40;;
65936;SDS011;52707;52.086;5.418;2023-07-31T09:21:29;7.40;;;3.00;;
65936;SDS011;52707;52.086;5.418;2023-07-31T09:23:56;3.97;;;3.15;;
65936;SDS011;52707;52.086;5.418;2023-07-31T09:26:32;5.50;;;3.50;;
65936;SDS011;52707;52.086;5.418;2023-07-31T09:28:59;4.22;;;3.40;;
65936;SDS011;52707;52.086;5.418;2023-07-31T09:31:38;5.35;;;3.33;;
65936;SDS011;52707;52.086;5.418;2023-07-31T09:34:05;6.73;;;3.40;;
65936;SDS011;52707;52.086;5.418;2023-07-31T09:36:31;6.45;;;3.67;;
65936;SDS011;52707;52.086;5.418;2023-07-31T09:39:01;11.00;;;3.70;;
65936;SDS011;52707;52.086;5.418;2023-07-31T09:41:28;15.15;;;3.70;;
65936;SDS011;52707;52.086;5.418;2023-07-31T09:43:54;7.00;;;3.67;;
65936;SDS011;52707;52.086;5.418;2023-07-31T09:46:21;5.45;;;3.47;;
65936;SDS011;52707;52.086;5.418;2023-07-31T09:48:47;5.45;;;3.60;;
65936;SDS011;52707;52.086;5.418;2023-07-31T09:51:14;5.97;;;3.47;;
65936;SDS011;52707;52.086;5.418;2023-07-31T09:53:40;7.22;;;3.53;;
65936;SDS011;52707;52.086;5.418;2023-07-31T09:56:07;6.65;;;3.35;;
65936;SDS011;52707;52.086;5.418;2023-07-31T09:58:34;3.67;;;2.90;;
65936;SDS011;52707;52.086;5.418;2023-07-31T10:01:02;4.88;;;3.15;;
65936;SDS011;52707;52.086;5.418;2023-07-31T10:03:29;5.05;;;3.05;;
65936;SDS011;52707;52.086;5.418;2023-07-31T10:05:56;7.60;;;3.42;;
65936;SDS011;52707;52.086;5.418;2023-07-31T10:08:23;6.07;;;4.15;;
65936;SDS011;52707;52.086;5.418;2023-07-31T10:10:53;5.30;;;4.00;;
65936;SDS011;52707;52.086;5.418;2023-07-31T10:13:19;14.55;;;4.88;;
65936;SDS011;52707;52.086;5.418;2023-07-31T10:15:48;6.45;;;4.78;;
65936;SDS011;52707;52.086;5.418;2023-07-31T10:18:14;12.52;;;4.63;;
65936;SDS011;52707;52.086;5.418;2023-07-31T10:20:41;8.73;;;5.00;;
65936;SDS011;52707;52.086;5.418;2023-07-31T10:23:07;10.25;;;5.25;;
65936;SDS011;52707;52.086;5.418;2023-07-31T10:25:34;11.07;;;4.72;;
65936;SDS011;52707;52.086;5.418;2023-07-31T10:28:01;9.27;;;5.05;;
65936;SDS011;52707;52.086;5.418;2023-07-31T10:30:28;6.82;;;4.60;;
65936;SDS011;52707;52.086;5.418;2023-07-31T10:32:56;14.10;;;5.47;;
65936;SDS011;52707;52.086;5.418;2023-07-31T10:35:22;11.13;;;4.47;;
65936;SDS011;52707;52.086;5.418;2023-07-31T10:37:49;10.50;;;5.50;;
65936;SDS011;52707;52.086;5.418;2023-07-31T10:40:16;10.27;;;5.28;;
65936;SDS011;52707;52.086;5.418;2023-07-31T10:42:47;10.25;;;5.45;;
65936;SDS011;52707;52.086;5.418;2023-07-31T10:45:14;8.73;;;4.78;;
65936;SDS011;52707;52.086;5.418;2023-07-31T10:47:50;12.43;;;5.53;;
65936;SDS011;52707;52.086;5.418;2023-07-31T10:50:23;7.18;;;5.05;;
65936;SDS011;52707;52.086;5.418;2023-07-31T10:52:51;6.00;;;4.20;;
65936;SDS011;52707;52.086;5.418;2023-07-31T10:55:35;7.70;;;4.72;;
65936;SDS011;52707;52.086;5.418;2023-07-31T10:58:08;11.35;;;5.90;;
65936;SDS011;52707;52.086;5.418;2023-07-31T11:03:02;6.63;;;4.50;;
65936;SDS011;52707;52.086;5.418;2023-07-31T11:05:46;5.38;;;3.95;;
65936;SDS011;52707;52.086;5.418;2023-07-31T11:10:39;7.93;;;4.30;;
65936;SDS011;52707;52.086;5.418;2023-07-31T11:13:05;4.60;;;3.47;;
65936;SDS011;52707;52.086;5.418;2023-07-31T11:15:31;5.47;;;3.25;;
65936;SDS011;52707;52.086;5.418;2023-07-31T11:17:59;5.40;;;3.00;;
65936;SDS011;52707;52.086;5.418;2023-07-31T11:20:26;5.05;;;2.80;;
65936;SDS011;52707;52.086;5.418;2023-07-31T11:22:53;6.43;;;2.80;;
65936;SDS011;52707;52.086;5.418;2023-07-31T11:25:19;3.67;;;2.88;;
65936;SDS011;52707;52.086;5.418;2023-07-31T11:27:46;4.38;;;3.25;;
65936;SDS011;52707;52.086;5.418;2023-07-31T11:30:12;6.03;;;3.22;;
65936;SDS011;52707;52.086;5.418;2023-07-31T11:32:38;5.10;;;3.90;;
65936;SDS011;52707;52.086;5.418;2023-07-31T11:35:06;8.05;;;3.75;;
65936;SDS011;52707;52.086;5.418;2023-07-31T11:37:40;6.90;;;3.28;;
65936;SDS011;52707;52.086;5.418;2023-07-31T11:40:07;7.18;;;4.55;;
65936;SDS011;52707;52.086;5.418;2023-07-31T11:42:35;6.63;;;4.20;;
65936;SDS011;52707;52.086;5.418;2023-07-31T11:45:05;4.53;;;4.10;;
65936;SDS011;52707;52.086;5.418;2023-07-31T11:47:32;8.55;;;4.20;;
65936;SDS011;52707;52.086;5.418;2023-07-31T11:50:00;6.85;;;4.32;;
65936;SDS011;52707;52.086;5.418;2023-07-31T11:52:28;7.25;;;3.88;;
65936;SDS011;52707;52.086;5.418;2023-07-31T11:54:56;6.68;;;4.43;;
65936;SDS011;52707;52.086;5.418;2023-07-31T11:57:22;8.90;;;4.68;;
65936;SDS011;52707;52.086;5.418;2023-07-31T11:59:49;10.63;;;5.40;;
65936;SDS011;52707;52.086;5.418;2023-07-31T12:02:16;8.57;;;5.28;;
65936;SDS011;52707;52.086;5.418;2023-07-31T12:04:43;9.75;;;4.82;;
65936;SDS011;52707;52.086;5.418;2023-07-31T12:07:09;5.32;;;4.10;;
65936;SDS011;52707;52.086;5.418;2023-07-31T12:09:35;6.95;;;3.90;;
65936;SDS011;52707;52.086;5.418;2023-07-31T12:12:02;3.83;;;3.38;;
65936;SDS011;52707;52.086;5.418;2023-07-31T12:14:33;4.75;;;3.30;;
65936;SDS011;52707;52.086;5.418;2023-07-31T12:17:01;3.33;;;3.03;;
65936;SDS011;52707;52.086;5.418;2023-07-31T12:19:30;4.80;;;3.08;;
65936;SDS011;52707;52.086;5.418;2023-07-31T12:21:58;5.13;;;3.40;;
65936;SDS011;52707;52.086;5.418;2023-07-31T12:24:26;6.28;;;3.60;;
65936;SDS011;52707;52.086;5.418;2023-07-31T12:26:52;3.90;;;2.83;;
65936;SDS011;52707;52.086;5.418;2023-07-31T12:29:19;3.10;;;2.88;;
65936;SDS011;52707;52.086;5.418;2023-07-31T12:31:45;3.42;;;2.95;;
65936;SDS011;52707;52.086;5.418;2023-07-31T12:34:17;3.10;;;2.88;;
65936;SDS011;52707;52.086;5.418;2023-07-31T12:36:44;3.17;;;2.88;;
65936;SDS011;52707;52.086;5.418;2023-07-31T12:39:10;3.63;;;3.22;;
65936;SDS011;52707;52.086;5.418;2023-07-31T12:41:37;4.80;;;3.35;;
65936;SDS011;52707;52.086;5.418;2023-07-31T12:44:03;6.18;;;3.55;;
65936;SDS011;52707;52.086;5.418;2023-07-31T12:46:30;4.18;;;3.40;;
65936;SDS011;52707;52.086;5.418;2023-07-31T12:48:56;6.07;;;3.80;;
65936;SDS011;52707;52.086;5.418;2023-07-31T12:51:23;4.10;;;3.70;;
65936;SDS011;52707;52.086;5.418;2023-07-31T12:53:49;7.72;;;3.83;;
65936;SDS011;52707;52.086;5.418;2023-07-31T12:56:15;5.07;;;3.70;;
65936;SDS011;52707;52.086;5.418;2023-07-31T12:58:43;6.55;;;3.88;;
65936;SDS011;52707;52.086;5.418;2023-07-31T13:01:09;5.57;;;3.65;;
65936;SDS011;52707;52.086;5.418;2023-07-31T13:03:36;10.88;;;4.03;;
65936;SDS011;52707;52.086;5.418;2023-07-31T13:06:03;8.15;;;4.30;;
65936;SDS011;52707;52.086;5.418;2023-07-31T13:08:29;8.63;;;4.43;;
65936;SDS011;52707;52.086;5.418;2023-07-31T13:10:55;7.65;;;4.18;;
65936;SDS011;52707;52.086;5.418;2023-07-31T13:13:24;5.30;;;4.38;;
65936;SDS011;52707;52.086;5.418;2023-07-31T13:15:50;7.43;;;4.00;;
65936;SDS011;52707;52.086;5.418;2023-07-31T13:18:17;6.47;;;3.90;;
65936;SDS011;52707;52.086;5.418;2023-07-31T13:20:43;8.55;;;3.63;;
65936;SDS011;52707;52.086;5.418;2023-07-31T13:23:09;4.95;;;3.70;;
65936;SDS011;52707;52.086;5.418;2023-07-31T13:25:36;4.13;;;3.58;;
65936;SDS011;52707;52.086;5.418;2023-07-31T13:28:02;6.15;;;3.63;;
65936;SDS011;52707;52.086;5.418;2023-07-31T13:30:29;3.38;;;2.90;;
65936;SDS011;52707;52.086;5.418;2023-07-31T13:32:55;3.63;;;3.28;;
65936;SDS011;52707;52.086;5.418;2023-07-31T13:35:22;7.47;;;3.25;;
65936;SDS011;52707;52.086;5.418;2023-07-31T13:37:48;4.72;;;3.08;;
65936;SDS011;52707;52.086;5.418;2023-07-31T13:40:15;5.28;;;3.28;;
65936;SDS011;52707;52.086;5.418;2023-07-31T13:42:41;5.75;;;3.40;;
65936;SDS011;52707;52.086;5.418;2023-07-31T13:45:07;4.43;;;3.50;;
65936;SDS011;52707;52.086;5.418;2023-07-31T13:47:34;4.55;;;3.25;;
65936;SDS011;52707;52.086;5.418;2023-07-31T13:50:01;3.70;;;3.40;;
65936;SDS011;52707;52.086;5.418;2023-07-31T13:52:27;4.03;;;3.15;;
65936;SDS011;52707;52.086;5.418;2023-07-31T13:54:53;3.88;;;3.38;;
65936;SDS011;52707;52.086;5.418;2023-07-31T13:57:20;5.15;;;4.10;;
65936;SDS011;52707;52.086;5.418;2023-07-31T13:59:46;8.38;;;6.13;;
65936;SDS011;52707;52.086;5.418;2023-07-31T14:02:13;7.60;;;5.90;;
65936;SDS011;52707;52.086;5.418;2023-07-31T14:04:41;6.93;;;6.00;;
65936;SDS011;52707;52.086;5.418;2023-07-31T14:07:07;12.75;;;6.95;;
65936;SDS011;52707;52.086;5.418;2023-07-31T14:09:33;10.25;;;6.65;;
65936;SDS011;52707;52.086;5.418;2023-07-31T14:12:00;8.80;;;7.50;;
65936;SDS011;52707;52.086;5.418;2023-07-31T14:14:26;10.45;;;7.68;;
65936;SDS011;52707;52.086;5.418;2023-07-31T14:16:53;8.18;;;7.32;;
65936;SDS011;52707;52.086;5.418;2023-07-31T14:19:19;10.50;;;9.02;;
65936;SDS011;52707;52.086;5.418;2023-07-31T14:21:46;10.90;;;8.25;;
65936;SDS011;52707;52.086;5.418;2023-07-31T14:24:26;11.30;;;8.27;;
65936;SDS011;52707;52.086;5.418;2023-07-31T14:26:52;9.25;;;7.18;;
65936;SDS011;52707;52.086;5.418;2023-07-31T14:29:18;10.23;;;8.00;;
65936;SDS011;52707;52.086;5.418;2023-07-31T14:31:45;12.30;;;8.10;;
65936;SDS011;52707;52.086;5.418;2023-07-31T14:34:11;10.73;;;7.20;;
65936;SDS011;52707;52.086;5.418;2023-07-31T14:36:37;12.23;;;7.93;;
65936;SDS011;52707;52.086;5.418;2023-07-31T14:39:04;9.20;;;7.72;;
65936;SDS011;52707;52.086;5.418;2023-07-31T14:41:31;10.82;;;7.90;;
65936;SDS011;52707;52.086;5.418;2023-07-31T14:43:57;10.30;;;7.55;;
65936;SDS011;52707;52.086;5.418;2023-07-31T14:46:23;10.80;;;8.05;;
65936;SDS011;52707;52.086;5.418;2023-07-31T14:48:50;12.77;;;8.45;;